sensor_id;sensor_type;location;lat;lon;timestamp;pressure;altitude;pressure_sealevel;temperature;humidity
8059;BME280;4072;42.668;23.396;2023-07-02T00:00:30;94481.06;;;19.69;100.00
8059;BME280;4072;42.668;23.396;2023-07-02T00:05:27;94476.31;;;19.51;100.00
8059;BME280;4072;42.668;23.396;2023-07-02T00:07:55;94476.91;;;19.44;100.00
8059;BME280;4072;42.668;23.396;2023-07-02T00:10:23;94471.56;;;19.52;100.00
8059;BME280;4072;42.668;23.396;2023-07-02T00:12:51;94476.63;;;19.48;100.00
8059;BME280;4072;42.668;23.396;2023-07-02T00:15:21;94468.66;;;19.44;100.00
8059;BME280;4072;42.668;23.396;2023-07-02T00:17:49;94476.88;;;19.26;100.00
8059;BME280;4072;42.668;23.396;2023-07-02T00:20:17;94474.91;;;19.21;100.00
8059;BME280;4072;42.668;23.396;2023-07-02T00:22:46;94476.38;;;19.22;100.00
8059;BME280;4072;42.668;23.396;2023-07-02T00:25:14;94126.34;;;16.96;100.00
8059;BME280;4072;42.668;23.396;2023-07-02T00:27:42;94447.97;;;19.25;100.00
8059;BME280;4072;42.668;23.396;2023-07-02T00:30:11;94461.34;;;19.34;100.00
8059;BME280;4072;42.668;23.396;2023-07-02T00:32:40;94468.47;;;19.42;100.00
8059;BME280;4072;42.668;23.396;2023-07-02T00:35:08;94468.28;;;19.35;100.00
8059;BME280;4072;42.668;23.396;2023-07-02T00:37:36;94465.56;;;19.35;100.00
8059;BME280;4072;42.668;23.396;2023-07-02T00:40:05;94474.22;;;19.39;100.00
8059;BME280;4072;42.668;23.396;2023-07-02T00:42:34;94469.09;;;19.48;100.00
8059;BME280;4072;42.668;23.396;2023-07-02T00:45:02;94478.09;;;19.67;100.00
8059;BME280;4072;42.668;23.396;2023-07-02T00:47:33;94493.06;;;19.85;100.00
8059;BME280;4072;42.668;23.396;2023-07-02T00:50:05;94482.25;;;19.74;100.00
8059;BME280;4072;42.668;23.396;2023-07-02T00:52:33;94485.94;;;19.76;100.00
8059;BME280;4072;42.668;23.396;2023-07-02T00:55:01;94486.69;;;19.77;100.00
8059;BME280;4072;42.668;23.396;2023-07-02T00:57:29;94490.25;;;19.72;100.00
8059;BME280;4072;42.668;23.396;2023-07-02T00:59:57;94492.56;;;19.68;100.00
8059;BME280;4072;42.668;23.396;2023-07-02T01:02:27;94486.63;;;19.64;100.00
8059;BME280;4072;42.668;23.396;2023-07-02T01:04:57;94484.19;;;19.60;100.00
8059;BME280;4072;42.668;23.396;2023-07-02T01:07:29;94486.84;;;19.47;100.00
8059;BME280;4072;42.668;23.396;2023-07-02T01:09:57;94487.94;;;19.39;100.00
8059;BME280;4072;42.668;23.396;2023-07-02T01:12:25;94422.53;;;18.82;100.00
8059;BME280;4072;42.668;23.396;2023-07-02T01:14:57;94482.91;;;19.19;100.00
8059;BME280;4072;42.668;23.396;2023-07-02T01:17:29;94475.88;;;19.05;100.00
8059;BME280;4072;42.668;23.396;2023-07-02T01:20:11;94493.72;;;19.11;100.00
8059;BME280;4072;42.668;23.396;2023-07-02T01:22:40;94491.03;;;19.06;100.00
8059;BME280;4072;42.668;23.396;2023-07-02T01:25:08;94497.56;;;19.03;100.00
8059;BME280;4072;42.668;23.396;2023-07-02T01:27:37;94495.63;;;18.98;100.00
8059;BME280;4072;42.668;23.396;2023-07-02T01:30:06;94497.09;;;18.99;100.00
8059;BME280;4072;42.668;23.396;2023-07-02T01:32:34;94504.63;;;18.93;100.00
8059;BME280;4072;42.668;23.396;2023-07-02T01:35:03;94495.44;;;18.90;100.00
8059;BME280;4072;42.668;23.396;2023-07-02T01:37:32;94477.25;;;18.63;100.00
8059;BME280;4072;42.668;23.396;2023-07-02T01:40:05;94485.38;;;18.74;100.00
8059;BME280;4072;42.668;23.396;2023-07-02T01:42:34;94470.00;;;18.71;100.00
8059;BME280;4072;42.668;23.396;2023-07-02T01:45:03;94481.63;;;18.77;100.00
8059;BME280;4072;42.668;23.396;2023-07-02T01:47:31;94456.31;;;18.90;100.00
8059;BME280;4072;42.668;23.396;2023-07-02T01:49:59;94426.19;;;18.66;100.00
8059;BME280;4072;42.668;23.396;2023-07-02T01:52:27;94454.97;;;18.78;100.00
8059;BME280;4072;42.668;23.396;2023-07-02T01:55:02;94461.19;;;18.78;100.00
8059;BME280;4072;42.668;23.396;2023-07-02T01:57:30;94476.44;;;18.74;100.00
8059;BME280;4072;42.668;23.396;2023-07-02T01:59:58;94470.78;;;18.66;100.00
8059;BME280;4072;42.668;23.396;2023-07-02T02:02:26;94463.47;;;18.50;100.00
8059;BME280;4072;42.668;23.396;2023-07-02T02:04:54;94454.34;;;18.37;100.00
8059;BME280;4072;42.668;23.396;2023-07-02T02:07:23;94438.47;;;18.30;100.00
8059;BME280;4072;42.668;23.396;2023-07-02T02:09:52;94345.13;;;17.44;100.00
8059;BME280;4072;42.668;23.396;2023-07-02T02:12:22;94465.09;;;18.00;100.00
8059;BME280;4072;42.668;23.396;2023-07-02T02:14:50;94458.69;;;17.92;100.00
8059;BME280;4072;42.668;23.396;2023-07-02T02:17:18;94450.31;;;17.79;100.00
8059;BME280;4072;42.668;23.396;2023-07-02T02:19:46;94451.47;;;17.54;100.00
8059;BME280;4072;42.668;23.396;2023-07-02T02:22:14;94452.22;;;17.48;100.00
8059;BME280;4072;42.668;23.396;2023-07-02T02:24:42;94460.84;;;17.64;100.00
8059;BME280;4072;42.668;23.396;2023-07-02T02:27:10;94446.47;;;17.58;100.00
8059;BME280;4072;42.668;23.396;2023-07-02T02:29:39;94460.19;;;17.47;100.00
8059;BME280;4072;42.668;23.396;2023-07-02T02:32:07;94461.88;;;17.61;100.00
8059;BME280;4072;42.668;23.396;2023-07-02T02:34:35;94458.81;;;17.70;100.00
8059;BME280;4072;42.668;23.396;2023-07-02T02:37:03;94454.84;;;17.71;100.00
8059;BME280;4072;42.668;23.396;2023-07-02T02:39:31;94459.28;;;17.74;100.00
8059;BME280;4072;42.668;23.396;2023-07-02T02:41:59;94464.28;;;17.70;100.00
8059;BME280;4072;42.668;23.396;2023-07-02T02:44:27;94456.50;;;17.79;100.00
8059;BME280;4072;42.668;23.396;2023-07-02T02:46:57;94451.72;;;17.91;100.00
8059;BME280;4072;42.668;23.396;2023-07-02T02:49:26;94447.78;;;17.81;100.00
8059;BME280;4072;42.668;23.396;2023-07-02T02:51:55;94402.31;;;17.37;100.00
8059;BME280;4072;42.668;23.396;2023-07-02T02:54:23;94446.69;;;17.65;100.00
8059;BME280;4072;42.668;23.396;2023-07-02T02:56:51;94452.34;;;17.73;100.00
8059;BME280;4072;42.668;23.396;2023-07-02T02:59:19;94458.19;;;17.88;100.00
8059;BME280;4072;42.668;23.396;2023-07-02T03:01:47;94460.16;;;17.93;100.00
8059;BME280;4072;42.668;23.396;2023-07-02T03:04:16;94454.88;;;18.00;100.00
8059;BME280;4072;42.668;23.396;2023-07-02T03:06:44;94426.41;;;17.85;100.00
8059;BME280;4072;42.668;23.396;2023-07-02T03:09:12;94456.31;;;17.72;100.00
8059;BME280;4072;42.668;23.396;2023-07-02T03:11:40;94464.03;;;17.73;100.00
8059;BME280;4072;42.668;23.396;2023-07-02T03:14:08;94448.28;;;17.85;100.00
8059;BME280;4072;42.668;23.396;2023-07-02T03:16:36;94458.81;;;17.70;100.00
8059;BME280;4072;42.668;23.396;2023-07-02T03:19:04;94448.34;;;17.74;100.00
8059;BME280;4072;42.668;23.396;2023-07-02T03:21:34;94441.22;;;17.60;100.00
8059;BME280;4072;42.668;23.396;2023-07-02T03:24:02;94448.41;;;17.63;100.00
8059;BME280;4072;42.668;23.396;2023-07-02T03:26:30;94447.47;;;17.55;100.00
8059;BME280;4072;42.668;23.396;2023-07-02T03:28:58;94455.44;;;17.52;100.00
8059;BME280;4072;42.668;23.396;2023-07-02T03:31:26;94462.94;;;17.47;100.00
8059;BME280;4072;42.668;23.396;2023-07-02T03:33:54;94478.81;;;17.54;100.00
8059;BME280;4072;42.668;23.396;2023-07-02T03:36:22;94478.34;;;17.50;100.00
8059;BME280;4072;42.668;23.396;2023-07-02T03:38:51;94481.53;;;17.54;100.00
8059;BME280;4072;42.668;23.396;2023-07-02T03:41:19;94492.22;;;17.52;100.00
8059;BME280;4072;42.668;23.396;2023-07-02T03:43:47;94488.25;;;17.52;100.00
8059;BME280;4072;42.668;23.396;2023-07-02T03:46:15;94478.28;;;17.61;100.00
8059;BME280;4072;42.668;23.396;2023-07-02T03:48:43;94484.16;;;17.76;100.00
8059;BME280;4072;42.668;23.396;2023-07-02T03:51:11;94458.75;;;17.81;100.00
8059;BME280;4072;42.668;23.396;2023-07-02T03:53:40;94414.19;;;17.51;100.00
8059;BME280;4072;42.668;23.396;2023-07-02T03:56:10;94475.88;;;17.87;100.00
8059;BME280;4072;42.668;23.396;2023-07-02T03:58:39;94482.75;;;17.64;100.00
8059;BME280;4072;42.668;23.396;2023-07-02T04:01:07;94478.28;;;17.61;100.00
8059;BME280;4072;42.668;23.396;2023-07-02T04:03:35;94478.97;;;17.67;100.00
8059;BME280;4072;42.668;23.396;2023-07-02T04:06:03;94473.25;;;17.70;100.00
8059;BME280;4072;42.668;23.396;2023-07-02T04:08:33;94460.06;;;17.69;100.00
8059;BME280;4072;42.668;23.396;2023-07-02T04:11:01;94469.81;;;17.59;100.00
8059;BME280;4072;42.668;23.396;2023-07-02T04:13:30;94486.47;;;17.61;100.00
8059;BME280;4072;42.668;23.396;2023-07-02T04:15:58;94483.69;;;17.72;100.00
8059;BME280;4072;42.668;23.396;2023-07-02T04:18:26;94501.97;;;17.88;100.00
8059;BME280;4072;42.668;23.396;2023-07-02T04:20:55;94477.06;;;17.56;100.00
8059;BME280;4072;42.668;23.396;2023-07-02T04:23:23;94495.91;;;17.60;100.00
8059;BME280;4072;42.668;23.396;2023-07-02T04:25:52;94506.38;;;17.56;100.00
8059;BME280;4072;42.668;23.396;2023-07-02T04:28:41;94524.72;;;17.72;100.00
8059;BME280;4072;42.668;23.396;2023-07-02T04:31:09;94512.50;;;17.73;100.00
8059;BME280;4072;42.668;23.396;2023-07-02T04:33:37;94510.03;;;17.75;100.00
8059;BME280;4072;42.668;23.396;2023-07-02T04:36:06;94502.38;;;17.62;100.00
8059;BME280;4072;42.668;23.396;2023-07-02T04:38:34;94517.28;;;17.61;100.00
8059;BME280;4072;42.668;23.396;2023-07-02T04:41:02;94520.06;;;17.56;100.00
8059;BME280;4072;42.668;23.396;2023-07-02T04:43:32;94516.13;;;17.45;100.00
8059;BME280;4072;42.668;23.396;2023-07-02T04:46:01;94539.94;;;17.62;100.00
8059;BME280;4072;42.668;23.396;2023-07-02T04:48:30;94539.66;;;17.71;100.00
8059;BME280;4072;42.668;23.396;2023-07-02T04:50:58;94548.81;;;17.79;100.00
8059;BME280;4072;42.668;23.396;2023-07-02T04:53:26;94547.56;;;17.74;100.00
8059;BME280;4072;42.668;23.396;2023-07-02T04:55:54;94546.56;;;17.77;100.00
8059;BME280;4072;42.668;23.396;2023-07-02T04:58:23;94539.13;;;17.78;100.00
8059;BME280;4072;42.668;23.396;2023-07-02T05:00:51;94552.22;;;17.90;100.00
8059;BME280;4072;42.668;23.396;2023-07-02T05:03:21;94501.63;;;17.62;100.00
8059;BME280;4072;42.668;23.396;2023-07-02T05:05:49;94554.63;;;18.05;100.00
8059;BME280;4072;42.668;23.396;2023-07-02T05:08:17;94536.13;;;18.16;100.00
8059;BME280;4072;42.668;23.396;2023-07-02T05:10:44;94566.38;;;18.35;100.00
8059;BME280;4072;42.668;23.396;2023-07-02T05:13:13;94542.28;;;18.28;100.00
8059;BME280;4072;42.668;23.396;2023-07-02T05:15:41;94562.31;;;18.47;100.00
8059;BME280;4072;42.668;23.396;2023-07-02T05:18:09;94565.78;;;18.53;100.00
8059;BME280;4072;42.668;23.396;2023-07-02T05:20:39;94555.84;;;18.50;100.00
8059;BME280;4072;42.668;23.396;2023-07-02T05:23:07;94558.81;;;18.52;100.00
8059;BME280;4072;42.668;23.396;2023-07-02T05:25:35;94548.88;;;18.49;100.00
8059;BME280;4072;42.668;23.396;2023-07-02T05:28:03;94563.25;;;18.55;100.00
8059;BME280;4072;42.668;23.396;2023-07-02T05:30:31;94554.47;;;18.62;100.00
8059;BME280;4072;42.668;23.396;2023-07-02T05:32:59;94537.38;;;18.56;100.00
8059;BME280;4072;42.668;23.396;2023-07-02T05:35:27;94553.06;;;18.85;100.00
8059;BME280;4072;42.668;23.396;2023-07-02T05:37:57;94539.75;;;18.94;100.00
8059;BME280;4072;42.668;23.396;2023-07-02T05:40:25;94527.13;;;18.86;100.00
8059;BME280;4072;42.668;23.396;2023-07-02T05:42:52;94542.88;;;19.04;100.00
8059;BME280;4072;42.668;23.396;2023-07-02T05:45:20;94549.16;;;19.28;100.00
8059;BME280;4072;42.668;23.396;2023-07-02T05:47:49;94541.31;;;19.38;100.00
8059;BME280;4072;42.668;23.396;2023-07-02T05:50:17;94557.13;;;19.50;100.00
8059;BME280;4072;42.668;23.396;2023-07-02T05:52:46;94551.00;;;19.63;100.00
8059;BME280;4072;42.668;23.396;2023-07-02T05:55:15;94551.09;;;19.76;100.00
8059;BME280;4072;42.668;23.396;2023-07-02T05:57:43;94543.31;;;19.80;100.00
8059;BME280;4072;42.668;23.396;2023-07-02T06:00:12;94530.09;;;19.97;100.00
8059;BME280;4072;42.668;23.396;2023-07-02T06:02:40;94507.47;;;19.91;100.00
8059;BME280;4072;42.668;23.396;2023-07-02T06:05:08;94540.41;;;20.09;100.00
8059;BME280;4072;42.668;23.396;2023-07-02T06:07:37;94527.28;;;20.21;100.00
8059;BME280;4072;42.668;23.396;2023-07-02T06:10:06;94507.69;;;20.11;100.00
8059;BME280;4072;42.668;23.396;2023-07-02T06:12:35;94530.44;;;20.25;100.00
8059;BME280;4072;42.668;23.396;2023-07-02T06:15:04;94530.63;;;20.14;100.00
8059;BME280;4072;42.668;23.396;2023-07-02T06:17:32;94527.19;;;20.08;100.00
8059;BME280;4072;42.668;23.396;2023-07-02T06:20:03;94510.94;;;20.10;100.00
8059;BME280;4072;42.668;23.396;2023-07-02T06:22:32;94526.91;;;20.11;100.00
8059;BME280;4072;42.668;23.396;2023-07-02T06:25:01;94521.72;;;20.08;100.00
8059;BME280;4072;42.668;23.396;2023-07-02T06:27:31;94529.28;;;20.02;100.00
8059;BME280;4072;42.668;23.396;2023-07-02T06:30:00;94517.69;;;19.90;100.00
8059;BME280;4072;42.668;23.396;2023-07-02T06:32:29;94501.38;;;19.98;100.00
8059;BME280;4072;42.668;23.396;2023-07-02T06:34:57;94520.78;;;20.37;100.00
8059;BME280;4072;42.668;23.396;2023-07-02T06:37:25;94516.91;;;20.46;100.00
8059;BME280;4072;42.668;23.396;2023-07-02T06:39:53;94502.28;;;20.69;100.00
8059;BME280;4072;42.668;23.396;2023-07-02T06:42:22;94525.09;;;20.96;100.00
8059;BME280;4072;42.668;23.396;2023-07-02T06:44:50;94521.72;;;21.03;100.00
8059;BME280;4072;42.668;23.396;2023-07-02T06:47:19;94495.66;;;20.91;100.00
8059;BME280;4072;42.668;23.396;2023-07-02T06:49:47;94457.13;;;20.65;100.00
8059;BME280;4072;42.668;23.396;2023-07-02T06:52:15;94517.28;;;21.26;100.00
8059;BME280;4072;42.668;23.396;2023-07-02T06:54:44;94400.28;;;20.60;100.00
8059;BME280;4072;42.668;23.396;2023-07-02T06:57:12;94520.56;;;21.11;100.00
8059;BME280;4072;42.668;23.396;2023-07-02T06:59:40;94504.38;;;21.08;100.00
8059;BME280;4072;42.668;23.396;2023-07-02T07:02:08;94516.31;;;21.23;100.00
8059;BME280;4072;42.668;23.396;2023-07-02T07:04:37;94510.19;;;21.43;100.00
8059;BME280;4072;42.668;23.396;2023-07-02T07:07:05;94522.69;;;21.44;100.00
8059;BME280;4072;42.668;23.396;2023-07-02T07:09:33;94524.78;;;21.51;100.00
8059;BME280;4072;42.668;23.396;2023-07-02T07:12:01;94528.41;;;21.72;100.00
8059;BME280;4072;42.668;23.396;2023-07-02T07:14:29;94517.16;;;21.83;100.00
8059;BME280;4072;42.668;23.396;2023-07-02T07:16:57;94512.41;;;21.84;100.00
8059;BME280;4072;42.668;23.396;2023-07-02T07:19:25;94516.59;;;21.98;100.00
8059;BME280;4072;42.668;23.396;2023-07-02T07:21:55;94512.59;;;22.19;100.00
8059;BME280;4072;42.668;23.396;2023-07-02T07:24:23;94518.97;;;22.14;100.00
8059;BME280;4072;42.668;23.396;2023-07-02T07:26:51;94521.75;;;22.01;100.00
8059;BME280;4072;42.668;23.396;2023-07-02T07:29:19;94526.16;;;21.97;100.00
8059;BME280;4072;42.668;23.396;2023-07-02T07:31:47;94516.22;;;22.14;100.00
8059;BME280;4072;42.668;23.396;2023-07-02T07:34:15;94521.03;;;22.34;100.00
8059;BME280;4072;42.668;23.396;2023-07-02T07:36:43;94511.34;;;22.54;100.00
8059;BME280;4072;42.668;23.396;2023-07-02T07:39:12;94492.97;;;22.56;100.00
8059;BME280;4072;42.668;23.396;2023-07-02T07:41:40;94508.63;;;22.61;100.00
8059;BME280;4072;42.668;23.396;2023-07-02T07:44:10;94510.72;;;22.68;100.00
8059;BME280;4072;42.668;23.396;2023-07-02T07:46:38;94516.16;;;22.81;100.00
8059;BME280;4072;42.668;23.396;2023-07-02T07:49:06;94521.84;;;23.25;100.00
8059;BME280;4072;42.668;23.396;2023-07-02T07:51:34;94476.94;;;23.60;100.00
8059;BME280;4072;42.668;23.396;2023-07-02T07:54:02;94440.13;;;24.15;100.00
8059;BME280;4072;42.668;23.396;2023-07-02T07:56:32;94479.44;;;24.44;100.00
8059;BME280;4072;42.668;23.396;2023-07-02T07:59:00;94505.50;;;25.01;100.00
8059;BME280;4072;42.668;23.396;2023-07-02T08:01:28;94485.75;;;25.12;100.00
8059;BME280;4072;42.668;23.396;2023-07-02T08:03:56;94509.16;;;24.81;100.00
8059;BME280;4072;42.668;23.396;2023-07-02T08:06:24;94510.22;;;25.61;100.00
8059;BME280;4072;42.668;23.396;2023-07-02T08:08:52;94491.31;;;25.82;100.00
8059;BME280;4072;42.668;23.396;2023-07-02T08:11:20;94513.19;;;25.55;100.00
8059;BME280;4072;42.668;23.396;2023-07-02T08:13:49;94526.13;;;25.60;100.00
8059;BME280;4072;42.668;23.396;2023-07-02T08:16:20;94517.06;;;25.52;100.00
8059;BME280;4072;42.668;23.396;2023-07-02T08:18:48;94526.88;;;25.53;100.00
8059;BME280;4072;42.668;23.396;2023-07-02T08:21:16;94520.19;;;25.71;100.00
8059;BME280;4072;42.668;23.396;2023-07-02T08:23:44;94504.88;;;25.55;100.00
8059;BME280;4072;42.668;23.396;2023-07-02T08:26:12;94514.25;;;25.75;98.98
8059;BME280;4072;42.668;23.396;2023-07-02T08:28:41;94513.97;;;25.33;100.00
8059;BME280;4072;42.668;23.396;2023-07-02T08:31:10;94509.34;;;25.20;100.00
8059;BME280;4072;42.668;23.396;2023-07-02T08:33:38;94502.88;;;25.48;100.00
8059;BME280;4072;42.668;23.396;2023-07-02T08:36:06;94503.63;;;25.18;100.00
8059;BME280;4072;42.668;23.396;2023-07-02T08:38:34;94503.28;;;25.07;100.00
8059;BME280;4072;42.668;23.396;2023-07-02T08:41:02;94510.13;;;24.98;100.00
8059;BME280;4072;42.668;23.396;2023-07-02T08:43:31;94511.38;;;25.05;100.00
8059;BME280;4072;42.668;23.396;2023-07-02T08:45:59;94507.69;;;25.32;100.00
8059;BME280;4072;42.668;23.396;2023-07-02T08:48:29;94499.41;;;24.80;100.00
8059;BME280;4072;42.668;23.396;2023-07-02T08:50:57;94499.22;;;24.70;100.00
8059;BME280;4072;42.668;23.396;2023-07-02T08:53:25;94509.00;;;25.24;100.00
8059;BME280;4072;42.668;23.396;2023-07-02T08:55:56;94507.72;;;25.10;100.00
8059;BME280;4072;42.668;23.396;2023-07-02T08:58:24;94504.75;;;25.15;100.00
8059;BME280;4072;42.668;23.396;2023-07-02T09:01:06;94502.88;;;25.48;100.00
8059;BME280;4072;42.668;23.396;2023-07-02T09:03:36;94500.69;;;25.39;100.00
8059;BME280;4072;42.668;23.396;2023-07-02T09:06:05;94483.25;;;25.61;100.00
8059;BME280;4072;42.668;23.396;2023-07-02T09:08:35;94466.59;;;25.76;100.00
8059;BME280;4072;42.668;23.396;2023-07-02T09:11:07;94502.44;;;26.21;100.00
8059;BME280;4072;42.668;23.396;2023-07-02T09:13:45;94500.00;;;26.25;100.00
8059;BME280;4072;42.668;23.396;2023-07-02T09:16:24;94489.97;;;25.43;100.00
8059;BME280;4072;42.668;23.396;2023-07-02T09:19:01;94500.31;;;25.35;100.00
8059;BME280;4072;42.668;23.396;2023-07-02T09:21:38;94462.09;;;25.26;100.00
8059;BME280;4072;42.668;23.396;2023-07-02T09:24:14;94495.66;;;25.60;100.00
8059;BME280;4072;42.668;23.396;2023-07-02T09:26:43;94480.69;;;25.56;100.00
8059;BME280;4072;42.668;23.396;2023-07-02T09:29:12;94476.31;;;25.30;100.00
8059;BME280;4072;42.668;23.396;2023-07-02T09:31:44;94487.75;;;25.26;100.00
8059;BME280;4072;42.668;23.396;2023-07-02T09:34:36;94483.41;;;25.71;100.00
8059;BME280;4072;42.668;23.396;2023-07-02T09:37:06;94485.34;;;25.93;100.00
8059;BME280;4072;42.668;23.396;2023-07-02T09:39:36;94485.53;;;26.02;100.00
8059;BME280;4072;42.668;23.396;2023-07-02T09:42:06;94482.91;;;26.12;100.00
8059;BME280;4072;42.668;23.396;2023-07-02T09:44:35;94489.84;;;26.60;100.00
8059;BME280;4072;42.668;23.396;2023-07-02T09:47:04;94489.28;;;26.61;100.00
8059;BME280;4072;42.668;23.396;2023-07-02T09:49:36;94483.50;;;26.03;100.00
8059;BME280;4072;42.668;23.396;2023-07-02T09:52:06;94431.16;;;25.67;100.00
8059;BME280;4072;42.668;23.396;2023-07-02T09:54:34;94478.25;;;26.78;99.50
8059;BME280;4072;42.668;23.396;2023-07-02T09:57:03;94480.44;;;27.29;97.33
8059;BME280;4072;42.668;23.396;2023-07-02T09:59:33;94489.44;;;27.54;93.75
8059;BME280;4072;42.668;23.396;2023-07-02T10:02:01;94484.34;;;27.01;93.70
8059;BME280;4072;42.668;23.396;2023-07-02T10:04:40;94434.84;;;26.41;94.30
8059;BME280;4072;42.668;23.396;2023-07-02T10:07:09;94485.22;;;26.30;100.00
8059;BME280;4072;42.668;23.396;2023-07-02T10:09:39;94476.59;;;26.75;100.00
8059;BME280;4072;42.668;23.396;2023-07-02T10:12:18;94478.81;;;27.01;96.25
8059;BME280;4072;42.668;23.396;2023-07-02T10:14:48;94474.69;;;26.53;97.00
8059;BME280;4072;42.668;23.396;2023-07-02T10:17:27;94467.94;;;26.71;94.80
8059;BME280;4072;42.668;23.396;2023-07-02T10:20:00;94459.84;;;27.07;90.60
8059;BME280;4072;42.668;23.396;2023-07-02T10:22:42;94439.00;;;26.82;86.90
8059;BME280;4072;42.668;23.396;2023-07-02T10:25:10;94451.66;;;26.92;87.92
8059;BME280;4072;42.668;23.396;2023-07-02T10:27:40;94452.22;;;26.91;91.33
8059;BME280;4072;42.668;23.396;2023-07-02T10:30:09;94445.41;;;27.09;91.03
8059;BME280;4072;42.668;23.396;2023-07-02T10:32:38;94440.13;;;27.20;90.93
8059;BME280;4072;42.668;23.396;2023-07-02T10:35:17;94439.53;;;27.05;91.75
8059;BME280;4072;42.668;23.396;2023-07-02T10:37:45;94431.00;;;27.27;92.35
8059;BME280;4072;42.668;23.396;2023-07-02T10:40:13;94434.81;;;27.66;87.82
8059;BME280;4072;42.668;23.396;2023-07-02T10:42:45;94439.66;;;27.65;79.52
8059;BME280;4072;42.668;23.396;2023-07-02T10:45:14;94428.22;;;27.61;81.22
8059;BME280;4072;42.668;23.396;2023-07-02T10:47:42;94436.72;;;27.63;80.39
8059;BME280;4072;42.668;23.396;2023-07-02T10:50:16;94438.28;;;27.57;83.10
8059;BME280;4072;42.668;23.396;2023-07-02T10:52:44;94432.78;;;27.49;81.95
8059;BME280;4072;42.668;23.396;2023-07-02T10:55:16;94426.22;;;27.20;82.08
8059;BME280;4072;42.668;23.396;2023-07-02T10:57:45;94427.72;;;27.38;81.43
8059;BME280;4072;42.668;23.396;2023-07-02T11:00:13;94428.53;;;27.31;80.99
8059;BME280;4072;42.668;23.396;2023-07-02T11:02:41;94435.91;;;27.36;80.35
8059;BME280;4072;42.668;23.396;2023-07-02T11:05:10;94383.75;;;27.10;80.92
8059;BME280;4072;42.668;23.396;2023-07-02T11:07:41;94413.34;;;27.32;78.91
8059;BME280;4072;42.668;23.396;2023-07-02T11:10:16;94430.75;;;27.67;76.95
8059;BME280;4072;42.668;23.396;2023-07-02T11:12:45;94422.56;;;27.69;75.25
8059;BME280;4072;42.668;23.396;2023-07-02T11:15:14;94373.16;;;27.50;77.35
8059;BME280;4072;42.668;23.396;2023-07-02T11:17:44;94426.06;;;28.03;71.45
8059;BME280;4072;42.668;23.396;2023-07-02T11:20:14;94420.63;;;28.32;68.83
8059;BME280;4072;42.668;23.396;2023-07-02T11:22:44;94409.78;;;28.63;65.46
8059;BME280;4072;42.668;23.396;2023-07-02T11:25:14;94415.91;;;28.97;62.25
8059;BME280;4072;42.668;23.396;2023-07-02T11:27:43;94420.38;;;29.19;61.01
8059;BME280;4072;42.668;23.396;2023-07-02T11:30:12;94413.19;;;29.45;60.71
8059;BME280;4072;42.668;23.396;2023-07-02T11:32:50;94414.09;;;29.95;56.47
8059;BME280;4072;42.668;23.396;2023-07-02T11:35:20;94406.13;;;30.01;55.96
8059;BME280;4072;42.668;23.396;2023-07-02T11:37:49;94413.25;;;29.64;56.54
8059;BME280;4072;42.668;23.396;2023-07-02T11:40:17;94413.34;;;29.47;57.00
8059;BME280;4072;42.668;23.396;2023-07-02T11:42:46;94406.56;;;29.12;58.45
8059;BME280;4072;42.668;23.396;2023-07-02T11:45:14;94420.75;;;28.97;62.10
8059;BME280;4072;42.668;23.396;2023-07-02T11:47:42;94425.41;;;28.22;70.91
8059;BME280;4072;42.668;23.396;2023-07-02T11:50:11;94373.00;;;27.31;78.37
8059;BME280;4072;42.668;23.396;2023-07-02T11:52:53;94423.63;;;27.39;82.53
8059;BME280;4072;42.668;23.396;2023-07-02T11:55:21;94408.09;;;27.02;85.24
8059;BME280;4072;42.668;23.396;2023-07-02T11:57:49;94423.28;;;27.18;87.46
8059;BME280;4072;42.668;23.396;2023-07-02T12:00:18;94420.91;;;27.15;87.82
8059;BME280;4072;42.668;23.396;2023-07-02T12:02:46;94426.06;;;27.01;88.09
8059;BME280;4072;42.668;23.396;2023-07-02T12:05:14;94426.09;;;26.77;92.57
8059;BME280;4072;42.668;23.396;2023-07-02T12:07:42;94436.19;;;26.65;94.35
8059;BME280;4072;42.668;23.396;2023-07-02T12:10:11;94430.22;;;26.68;94.53
8059;BME280;4072;42.668;23.396;2023-07-02T12:12:39;94431.53;;;27.09;88.75
8059;BME280;4072;42.668;23.396;2023-07-02T12:15:08;94429.75;;;27.38;87.74
8059;BME280;4072;42.668;23.396;2023-07-02T12:17:36;94433.78;;;27.61;76.77
8059;BME280;4072;42.668;23.396;2023-07-02T12:20:04;94437.91;;;27.19;74.92
8059;BME280;4072;42.668;23.396;2023-07-02T12:22:32;94425.94;;;27.33;71.24
8059;BME280;4072;42.668;23.396;2023-07-02T12:25:00;94443.84;;;27.57;67.68
8059;BME280;4072;42.668;23.396;2023-07-02T12:27:30;94448.63;;;27.56;66.65
8059;BME280;4072;42.668;23.396;2023-07-02T12:29:58;94444.72;;;27.42;68.57
8059;BME280;4072;42.668;23.396;2023-07-02T12:32:26;94442.72;;;27.18;68.24
8059;BME280;4072;42.668;23.396;2023-07-02T12:34:54;94445.88;;;26.98;71.67
8059;BME280;4072;42.668;23.396;2023-07-02T12:37:22;94452.56;;;26.78;76.59
8059;BME280;4072;42.668;23.396;2023-07-02T12:39:50;94446.78;;;26.51;85.72
8059;BME280;4072;42.668;23.396;2023-07-02T12:42:17;94451.66;;;26.43;100.00
8059;BME280;4072;42.668;23.396;2023-07-02T12:44:47;94443.19;;;26.09;100.00
8059;BME280;4072;42.668;23.396;2023-07-02T12:47:15;94451.59;;;25.17;100.00
8059;BME280;4072;42.668;23.396;2023-07-02T12:49:43;94443.88;;;24.55;100.00
8059;BME280;4072;42.668;23.396;2023-07-02T12:52:11;94431.28;;;24.17;100.00
8059;BME280;4072;42.668;23.396;2023-07-02T12:54:39;94442.38;;;24.32;100.00
8059;BME280;4072;42.668;23.396;2023-07-02T12:57:06;94392.03;;;24.03;100.00
8059;BME280;4072;42.668;23.396;2023-07-02T12:59:35;94453.25;;;24.60;100.00
8059;BME280;4072;42.668;23.396;2023-07-02T13:02:05;94450.72;;;24.84;100.00
8059;BME280;4072;42.668;23.396;2023-07-02T13:04:33;94435.38;;;25.06;100.00
8059;BME280;4072;42.668;23.396;2023-07-02T13:07:02;94429.44;;;25.32;100.00
8059;BME280;4072;42.668;23.396;2023-07-02T13:09:30;94441.97;;;25.40;100.00
8059;BME280;4072;42.668;23.396;2023-07-02T13:11:58;94443.72;;;25.68;100.00
8059;BME280;4072;42.668;23.396;2023-07-02T13:14:26;94440.66;;;25.89;100.00